Time;durP1;ratioP1;P1;durP2;ratioP2;P2;SDS_P1;SDS_P2;PMS_P1;PMS_P2;Temp;Humidity;BMP_temperature;BMP_pressure;BME280_temperature;BME280_humidity;BME280_pressure;Samples;Min_cycle;Max_cycle;Signal;HPM_P1;HPM_P2
2024/03/23 00:02:27;;;;;;;30.70;8.30;;;;;;;8.27;81.48;100315.13;106635;1256;62837;-63
2024/03/23 00:04:54;;;;;;;20.90;6.90;;;;;;;8.24;81.38;100320.09;104585;1257;138767;-62
2024/03/23 00:07:20;;;;;;;24.60;8.80;;;;;;;8.23;81.29;100322.16;104646;1257;76247;-62
2024/03/23 00:09:47;;;;;;;20.20;6.50;;;;;;;8.23;81.28;100321.30;104601;1260;138833;-63
2024/03/23 00:12:14;;;;;;;23.10;7.50;;;;;;;8.25;81.31;100321.69;104613;1256;72998;-61
2024/03/23 00:14:41;;;;;;;26.20;7.90;;;;;;;8.25;81.14;100315.22;104763;1257;62077;-61
2024/03/23 00:17:08;;;;;;;23.00;7.30;;;;;;;8.24;81.11;100312.58;104502;1262;138769;-62
2024/03/23 00:19:35;;;;;;;23.10;7.40;;;;;;;8.22;81.02;100313.06;104649;1257;76418;-62
2024/03/23 00:22:01;;;;;;;24.10;6.10;;;;;;;8.21;81.03;100308.47;104675;1260;139757;-62
2024/03/23 00:24:28;;;;;;;24.10;6.80;;;;;;;8.20;81.00;100303.39;104885;1256;73798;-62
2024/03/23 00:26:55;;;;;;;25.80;7.50;;;;;;;8.20;81.00;100299.52;104829;1260;62173;-62
2024/03/23 00:29:21;;;;;;;27.90;7.00;;;;;;;8.19;81.01;100296.19;104622;1257;138953;-62
2024/03/23 00:31:48;;;;;;;24.10;6.50;;;;;;;8.18;81.04;100293.55;104758;1259;62141;-61
2024/03/23 00:34:14;;;;;;;22.80;6.70;;;;;;;8.17;81.03;100287.92;104553;1257;139708;-62
2024/03/23 00:36:41;;;;;;;21.40;6.50;;;;;;;8.17;81.03;100282.86;104699;1259;62052;-61
2024/03/23 00:39:11;;;;;;;27.30;7.00;;;;;;;8.17;81.01;100282.34;104891;1260;62141;-61
2024/03/23 00:41:39;;;;;;;23.40;7.30;;;;;;;8.17;81.11;100285.84;104401;1257;62177;-62
2024/03/23 00:44:05;;;;;;;25.20;7.30;;;;;;;8.17;81.04;100286.86;103543;1256;76545;-62
2024/03/23 00:46:32;;;;;;;28.10;7.60;;;;;;;8.15;81.10;100288.05;104631;1259;139274;-61
2024/03/23 00:48:59;;;;;;;31.20;8.60;;;;;;;8.12;81.04;100287.98;104662;1256;72716;-61
2024/03/23 00:51:26;;;;;;;25.10;7.70;;;;;;;8.09;81.17;100286.84;104660;1256;138276;-62
2024/03/23 00:53:52;;;;;;;30.30;7.90;;;;;;;8.06;81.14;100288.15;104947;1256;62125;-62
2024/03/23 00:56:19;;;;;;;22.40;7.30;;;;;;;8.02;81.17;100289.08;104896;1256;62052;-62
2024/03/23 00:58:45;;;;;;;29.40;8.70;;;;;;;8.02;81.30;100285.75;104716;1256;138731;-61
2024/03/23 01:01:12;;;;;;;21.20;7.40;;;;;;;8.00;81.38;100286.94;104763;1257;73273;-62
2024/03/23 01:03:38;;;;;;;26.70;7.50;;;;;;;7.96;81.35;100284.92;104697;1260;139329;-62
2024/03/23 01:06:06;;;;;;;30.80;7.70;;;;;;;7.93;81.32;100282.37;104803;1257;62064;-62
2024/03/23 01:08:32;;;;;;;22.40;6.60;;;;;;;7.91;81.38;100288.77;104778;1255;74923;-62
2024/03/23 01:11:00;;;;;;;20.80;6.80;;;;;;;7.89;81.43;100290.30;104919;1259;138967;-62
2024/03/23 01:13:27;;;;;;;21.50;6.80;;;;;;;7.89;81.49;100291.16;108638;1256;71840;-62
2024/03/23 01:15:54;;;;;;;26.60;7.20;;;;;;;7.88;81.48;100296.39;104758;1256;139058;-62
2024/03/23 01:18:22;;;;;;;25.10;7.40;;;;;;;7.87;81.51;100289.20;104648;1256;62175;-61
2024/03/23 01:20:48;;;;;;;29.40;7.00;;;;;;;7.86;81.46;100288.11;107947;1257;76203;-61
2024/03/23 01:23:15;;;;;;;24.40;7.30;;;;;;;7.86;81.49;100290.20;104782;1256;138685;-61
2024/03/23 01:25:42;;;;;;;24.30;7.70;;;;;;;7.86;81.49;100291.24;104816;1257;72614;-61
2024/03/23 01:28:09;;;;;;;26.20;7.40;;;;;;;7.85;81.50;100286.17;104614;1261;139239;-63
2024/03/23 01:30:36;;;;;;;21.20;6.70;;;;;;;7.85;81.47;100285.29;104586;1256;62607;-61
2024/03/23 01:33:02;;;;;;;22.90;6.90;;;;;;;7.82;81.48;100281.53;104363;1258;74759;-61
2024/03/23 01:35:29;;;;;;;19.60;6.40;;;;;;;7.82;81.55;100281.53;103665;1256;139655;-62
2024/03/23 01:37:56;;;;;;;25.00;8.00;;;;;;;7.82;81.55;100283.63;103501;1259;73675;-62
2024/03/23 01:40:22;;;;;;;25.40;6.80;;;;;;;7.82;81.53;100285.56;104658;1256;138669;-60
2024/03/23 01:42:56;;;;;;;24.20;7.40;;;;;;;7.79;81.47;100287.58;104776;1259;62100;-62
2024/03/23 01:45:23;;;;;;;29.90;7.80;;;;;;;7.79;81.54;100287.21;108770;1256;138406;-62
2024/03/23 01:47:51;;;;;;;24.10;6.50;;;;;;;7.78;81.54;100286.14;105549;1257;65871;-63
2024/03/23 01:50:17;;;;;;;26.70;7.10;;;;;;;7.75;81.57;100283.44;104732;1256;73156;-63
2024/03/23 01:52:44;;;;;;;24.10;6.70;;;;;;;7.75;81.57;100292.49;104728;1260;138924;-63
2024/03/23 01:55:11;;;;;;;25.50;6.20;;;;;;;7.75;81.63;100294.25;104712;1256;62397;-62
2024/03/23 01:57:37;;;;;;;24.60;7.20;;;;;;;7.74;81.64;100298.09;103895;1256;140646;-62
2024/03/23 02:00:06;;;;;;;28.10;7.60;;;;;;;7.73;81.59;100291.77;103958;1256;67463;-62
2024/03/23 02:02:32;;;;;;;28.50;6.50;;;;;;;7.72;81.63;100289.64;106091;1256;72406;-62
2024/03/23 02:04:59;;;;;;;22.00;6.90;;;;;;;7.73;81.76;100286.15;104201;1256;139190;-62
2024/03/23 02:07:26;;;;;;;26.20;7.30;;;;;;;7.71;81.64;100284.21;104832;1256;62140;-62
2024/03/23 02:09:52;;;;;;;28.80;6.70;;;;;;;7.70;81.66;100279.62;104750;1257;139178;-61
2024/03/23 02:12:19;;;;;;;25.80;6.20;;;;;;;7.69;81.70;100274.35;104967;1259;62045;-61
2024/03/23 02:14:45;;;;;;;25.60;7.00;;;;;;;7.69;81.72;100268.23;104645;1257;71527;-61
2024/03/23 02:17:12;;;;;;;26.70;6.90;;;;;;;7.67;81.71;100269.25;104650;1256;138732;-62
2024/03/23 02:19:38;;;;;;;23.20;6.50;;;;;;;7.67;81.75;100268.19;104501;1263;63252;-61
2024/03/23 02:22:05;;;;;;;29.30;7.40;;;;;;;7.67;81.80;100268.17;104616;1256;138859;-61
2024/03/23 02:24:33;;;;;;;26.40;7.60;;;;;;;7.65;81.78;100267.95;104794;1257;62592;-61
2024/03/23 02:27:00;;;;;;;25.90;6.00;;;;;;;7.65;81.73;100263.23;104764;1262;73276;-61
2024/03/23 02:29:27;;;;;;;24.20;6.60;;;;;;;7.64;81.77;100259.04;104604;1255;138997;-62
2024/03/23 02:31:53;;;;;;;24.60;6.20;;;;;;;7.64;81.80;100259.18;104663;1256;62070;-62
2024/03/23 02:34:20;;;;;;;23.70;6.80;;;;;;;7.64;81.88;100248.52;104671;1257;138281;-62
2024/03/23 02:36:46;;;;;;;23.80;6.40;;;;;;;7.64;81.84;100247.85;104874;1257;67911;-61
2024/03/23 02:39:13;;;;;;;30.10;6.00;;;;;;;7.63;81.88;100240.84;104835;1256;138725;-61
2024/03/23 02:41:39;;;;;;;25.60;6.20;;;;;;;7.64;81.99;100235.81;108790;1256;60051;-62
2024/03/23 02:44:06;;;;;;;25.10;6.90;;;;;;;7.61;81.86;100230.30;108987;1256;60443;-62
2024/03/23 02:46:33;;;;;;;26.80;7.10;;;;;;;7.58;81.79;100230.54;108773;1255;139414;-62
2024/03/23 02:49:00;;;;;;;27.70;7.90;;;;;;;7.55;81.68;100225.05;108867;1256;65113;-62
2024/03/23 02:51:27;;;;;;;25.90;6.90;;;;;;;7.54;81.72;100217.86;107640;1256;139012;-62
2024/03/23 02:53:53;;;;;;;22.30;6.60;;;;;;;7.53;81.74;100212.59;104816;1258;62061;-63
2024/03/23 02:56:20;;;;;;;33.50;6.80;;;;;;;7.53;81.81;100216.45;104836;1259;62081;-62
2024/03/23 02:58:47;;;;;;;23.60;6.20;;;;;;;7.51;81.77;100215.52;104614;1257;138806;-62
2024/03/23 03:01:13;;;;;;;26.40;6.80;;;;;;;7.50;81.82;100211.65;104625;1261;66022;-61
2024/03/23 03:03:40;;;;;;;27.10;6.40;;;;;;;7.47;81.86;100210.52;104581;1258;138965;-62
2024/03/23 03:06:07;;;;;;;29.90;6.90;;;;;;;7.45;81.88;100208.89;104687;1260;62121;-61
2024/03/23 03:08:33;;;;;;;25.10;7.30;;;;;;;7.44;81.88;100208.14;104740;1260;62059;-61
2024/03/23 03:11:00;;;;;;;31.60;6.30;;;;;;;7.42;81.98;100208.27;104706;1259;139094;-62
2024/03/23 03:13:27;;;;;;;26.40;5.90;;;;;;;7.41;82.09;100210.52;104793;1256;65094;-62
2024/03/23 03:15:53;;;;;;;33.90;6.50;;;;;;;7.42;82.10;100221.38;104572;1259;138864;-61
2024/03/23 03:18:20;;;;;;;23.80;5.90;;;;;;;7.45;82.19;100217.77;104548;1262;62045;-62
2024/03/23 03:20:46;;;;;;;23.80;5.90;;;;;;;7.48;82.29;100211.42;104681;1259;62064;-62
2024/03/23 03:23:13;;;;;;;32.40;6.40;;;;;;;7.51;82.29;100206.61;104731;1256;138823;-61
2024/03/23 03:25:40;;;;;;;25.20;6.30;;;;;;;7.51;82.28;100203.81;104765;1257;66717;-61
2024/03/23 03:28:06;;;;;;;26.30;6.70;;;;;;;7.51;82.23;100197.19;104777;1256;138821;-61
2024/03/23 03:30:33;;;;;;;26.30;6.50;;;;;;;7.50;82.20;100190.02;104663;1259;63141;-60
2024/03/23 03:32:59;;;;;;;29.50;6.00;;;;;;;7.48;82.15;100190.46;104872;1256;62171;-61
2024/03/23 03:35:26;;;;;;;25.30;5.80;;;;;;;7.48;82.21;100200.59;104751;1256;139281;-63
2024/03/23 03:37:53;;;;;;;30.10;5.90;;;;;;;7.48;82.32;100202.15;104773;1264;67180;-63
2024/03/23 03:40:19;;;;;;;28.20;6.40;;;;;;;7.50;82.35;100199.09;104730;1259;138552;-61
2024/03/23 03:42:46;;;;;;;27.20;6.20;;;;;;;7.50;82.28;100196.98;104760;1256;62106;-61
2024/03/23 03:45:12;;;;;;;29.80;6.60;;;;;;;7.50;82.29;100199.23;104677;1260;138565;-61
2024/03/23 03:47:39;;;;;;;23.70;5.90;;;;;;;7.49;82.28;100191.20;104850;1256;76615;-61
2024/03/23 03:50:06;;;;;;;26.80;6.80;;;;;;;7.47;82.26;100189.73;104748;1264;67495;-61
2024/03/23 03:52:33;;;;;;;25.20;7.00;;;;;;;7.45;82.24;100187.77;104581;1259;138032;-60
2024/03/23 03:55:03;;;;;;;20.50;6.20;;;;;;;7.45;82.30;100181.45;104730;1256;62166;-61
2024/03/23 03:57:29;;;;;;;30.10;6.50;;;;;;;7.43;82.25;100181.23;108808;1255;139453;-61
2024/03/23 03:59:56;;;;;;;30.10;6.40;;;;;;;7.44;82.43;100185.45;109022;1256;75594;-62
2024/03/23 04:02:23;;;;;;;22.00;5.80;;;;;;;7.45;82.39;100184.63;109032;1256;65441;-62
2024/03/23 04:04:49;;;;;;;24.70;6.50;;;;;;;7.47;82.38;100192.17;108808;1255;138884;-61
2024/03/23 04:07:17;;;;;;;22.80;6.90;;;;;;;7.51;82.53;100190.55;108986;1256;59761;-62
2024/03/23 04:09:43;;;;;;;23.20;5.80;;;;;;;7.54;82.43;100191.18;108899;1256;139006;-62
2024/03/23 04:12:10;;;;;;;27.20;6.00;;;;;;;7.60;82.46;100189.56;109019;1257;60971;-62
2024/03/23 04:14:37;;;;;;;27.00;6.80;;;;;;;7.62;82.45;100186.66;109020;1256;67575;-62
2024/03/23 04:17:03;;;;;;;22.40;5.40;;;;;;;7.65;82.32;100177.66;108945;1256;138975;-62
2024/03/23 04:19:30;;;;;;;25.90;6.20;;;;;;;7.66;82.23;100167.73;108983;1256;60011;-62
2024/03/23 04:21:56;;;;;;;24.20;6.70;;;;;;;7.66;82.18;100163.52;104714;1259;138913;-61
2024/03/23 04:24:24;;;;;;;24.30;5.80;;;;;;;7.66;82.23;100161.78;104752;1259;62023;-61
2024/03/23 04:26:50;;;;;;;23.20;6.30;;;;;;;7.65;82.22;100160.02;104705;1257;65997;-62
2024/03/23 04:29:17;;;;;;;27.40;7.50;;;;;;;7.66;82.31;100161.80;104669;1257;139051;-61
2024/03/23 04:31:44;;;;;;;35.40;8.10;;;;;;;7.66;82.30;100163.36;104833;1258;62058;-60
2024/03/23 04:34:11;;;;;;;35.10;9.00;;;;;;;7.65;82.26;100163.00;104711;1256;138633;-61
2024/03/23 04:36:37;;;;;;;29.10;8.20;;;;;;;7.65;82.28;100159.15;104711;1256;74728;-61
2024/03/23 04:39:04;;;;;;;36.80;8.90;;;;;;;7.65;82.36;100152.52;104757;1256;62133;-61
2024/03/23 04:41:31;;;;;;;33.10;8.80;;;;;;;7.66;82.35;100153.05;104674;1259;137801;-61
2024/03/23 04:43:57;;;;;;;35.00;8.80;;;;;;;7.65;82.30;100156.19;104762;1256;61930;-61
2024/03/23 04:46:24;;;;;;;40.90;9.00;;;;;;;7.64;82.32;100150.91;104778;1257;138677;-62
2024/03/23 04:48:50;;;;;;;33.60;8.40;;;;;;;7.64;82.42;100148.83;104859;1260;76113;-61
2024/03/23 04:51:23;;;;;;;28.20;7.30;;;;;;;7.63;82.37;100141.29;104628;1262;139539;-61
2024/03/23 04:53:50;;;;;;;26.90;7.10;;;;;;;7.63;82.45;100142.48;108963;1256;70984;-60
2024/03/23 04:56:17;;;;;;;29.90;7.40;;;;;;;7.61;82.40;100144.55;107941;1255;62055;-60
2024/03/23 04:58:43;;;;;;;27.40;7.30;;;;;;;7.60;82.33;100146.27;104681;1256;138611;-60
2024/03/23 05:01:13;;;;;;;26.50;5.90;;;;;;;7.59;82.42;100144.15;104875;1260;76679;-60
2024/03/23 05:03:40;;;;;;;26.00;6.50;;;;;;;7.60;82.42;100144.54;104892;1257;139309;-61
2024/03/23 05:06:06;;;;;;;26.80;6.30;;;;;;;7.62;82.43;100140.02;104784;1256;72488;-62
2024/03/23 05:08:33;;;;;;;24.70;6.00;;;;;;;7.62;82.48;100143.53;105019;1256;62089;-61
2024/03/23 05:11:00;;;;;;;29.60;6.70;;;;;;;7.65;82.61;100142.21;104788;1257;138913;-61
2024/03/23 05:13:26;;;;;;;25.10;6.70;;;;;;;7.67;82.57;100143.31;104847;1256;76471;-62
2024/03/23 05:15:54;;;;;;;38.70;8.40;;;;;;;7.69;82.47;100141.27;104723;1258;140636;-62
2024/03/23 05:18:21;;;;;;;29.00;8.20;;;;;;;7.71;82.40;100135.20;104886;1259;72833;-62
2024/03/23 05:20:48;;;;;;;32.10;7.30;;;;;;;7.71;82.44;100135.56;108821;1256;59955;-61
2024/03/23 05:23:15;;;;;;;25.30;6.80;;;;;;;7.74;82.41;100131.97;109001;1255;138788;-61
2024/03/23 05:25:42;;;;;;;29.80;7.80;;;;;;;7.77;82.43;100133.98;109030;1256;75690;-64
2024/03/23 05:28:11;;;;;;;32.10;7.20;;;;;;;7.78;82.35;100129.83;108915;1256;138989;-64
2024/03/23 05:30:38;;;;;;;31.40;8.20;;;;;;;7.82;82.32;100127.64;106665;1256;73859;-63
2024/03/23 05:33:04;;;;;;;23.30;6.50;;;;;;;7.84;82.32;100124.39;104803;1256;62293;-63
2024/03/23 05:35:31;;;;;;;27.40;6.60;;;;;;;7.87;82.21;100120.60;104710;1257;138197;-64
2024/03/23 05:37:58;;;;;;;34.70;8.00;;;;;;;7.89;82.26;100121.02;108996;1256;75788;-65
2024/03/23 05:40:28;;;;;;;22.50;6.10;;;;;;;7.92;82.25;100121.96;107014;1256;138517;-64
2024/03/23 05:42:55;;;;;;;23.50;7.00;;;;;;;7.94;82.25;100116.95;104737;1256;71663;-64
2024/03/23 05:45:22;;;;;;;35.20;7.10;;;;;;;7.97;82.15;100116.84;104685;1257;138204;-65
2024/03/23 05:47:49;;;;;;;32.00;6.20;;;;;;;7.97;82.12;100117.04;104872;1260;62130;-65
2024/03/23 05:50:16;;;;;;;28.50;6.80;;;;;;;7.98;82.03;100114.60;109034;1256;74606;-65
2024/03/23 05:52:43;;;;;;;33.70;6.60;;;;;;;7.98;81.92;100111.11;105707;1259;138879;-66
2024/03/23 05:55:10;;;;;;;34.30;6.30;;;;;;;7.99;82.15;100103.46;104904;1262;73998;-66
2024/03/23 05:57:36;;;;;;;19.70;5.40;;;;;;;8.06;82.24;100103.97;104724;1256;165133;-66
2024/03/23 06:00:04;;;;;;;32.30;5.70;;;;;;;8.10;82.07;100103.71;104712;1259;62046;-66
2024/03/23 06:02:30;;;;;;;31.80;6.30;;;;;;;8.14;81.99;100098.59;104714;1259;74561;-66
2024/03/23 06:04:57;;;;;;;26.20;6.50;;;;;;;8.21;82.04;100090.36;104528;1256;138706;-66
2024/03/23 06:07:24;;;;;;;24.30;6.10;;;;;;;8.26;81.85;100088.90;104613;1258;71843;-66
2024/03/23 06:09:50;;;;;;;23.10;5.90;;;;;;;8.31;81.83;100088.33;104543;1259;139022;-64
2024/03/23 06:12:17;;;;;;;31.40;6.00;;;;;;;8.39;81.86;100087.64;104734;1256;62051;-65
2024/03/23 06:14:44;;;;;;;31.20;6.70;;;;;;;8.47;81.86;100090.11;104832;1256;73745;-64
2024/03/23 06:17:10;;;;;;;25.40;6.40;;;;;;;8.50;81.52;100081.27;104568;1262;138003;-65
2024/03/23 06:19:37;;;;;;;30.10;6.40;;;;;;;8.53;81.55;100077.30;108873;1255;72968;-65
2024/03/23 06:22:06;;;;;;;24.40;7.00;;;;;;;8.55;81.34;100082.08;108690;1255;138178;-65
2024/03/23 06:24:33;;;;;;;29.20;7.10;;;;;;;8.54;81.20;100073.31;107007;1260;61235;-65
2024/03/23 06:26:59;;;;;;;27.90;6.30;;;;;;;8.50;81.05;100069.72;104824;1259;76544;-65
2024/03/23 06:29:26;;;;;;;59.10;26.60;;;;;;;8.45;80.89;100067.33;104799;1261;138749;-65
2024/03/23 06:31:54;;;;;;;45.20;14.90;;;;;;;8.42;80.98;100070.39;104838;1257;73744;-65
2024/03/23 06:34:22;;;;;;;35.80;12.20;;;;;;;8.39;80.96;100071.55;108916;1256;139725;-65
2024/03/23 06:36:49;;;;;;;33.20;13.70;;;;;;;8.37;80.81;100069.77;108989;1256;60196;-65
2024/03/23 06:39:16;;;;;;;36.10;11.90;;;;;;;8.36;80.79;100076.37;108870;1256;139378;-64
2024/03/23 06:41:43;;;;;;;28.90;7.00;;;;;;;8.41;81.02;100081.91;108868;1257;66313;-64
2024/03/23 06:44:09;;;;;;;20.50;6.00;;;;;;;8.49;81.03;100080.73;108973;1258;72771;-64
2024/03/23 06:46:36;;;;;;;28.40;7.00;;;;;;;8.57;80.85;100083.52;108820;1256;138894;-64
2024/03/23 06:49:02;;;;;;;33.60;6.70;;;;;;;8.64;80.85;100083.33;108914;1256;60164;-65
2024/03/23 06:51:29;;;;;;;28.90;7.60;;;;;;;8.73;80.77;100082.29;108846;1256;138939;-66
2024/03/23 06:53:55;;;;;;;33.30;8.20;;;;;;;8.82;80.72;100078.28;108962;1256;66372;-64
2024/03/23 06:56:22;;;;;;;26.00;8.30;;;;;;;8.89;80.51;100078.77;109004;1256;74942;-64
2024/03/23 06:58:49;;;;;;;49.00;21.50;;;;;;;8.94;80.36;100077.32;108857;1256;138405;-64
2024/03/23 07:01:15;;;;;;;63.10;30.50;;;;;;;8.98;80.29;100078.45;109019;1256;60715;-64
2024/03/23 07:03:42;;;;;;;91.20;46.10;;;;;;;9.05;80.40;100074.20;107000;1256;138237;-64
2024/03/23 07:06:10;;;;;;;83.10;46.60;;;;;;;9.11;80.25;100076.95;104770;1259;67829;-65
2024/03/23 07:08:36;;;;;;;93.10;56.60;;;;;;;9.13;80.16;100076.82;104695;1257;72470;-64
2024/03/23 07:11:03;;;;;;;61.30;35.10;;;;;;;9.15;80.03;100081.40;104619;1256;138993;-65
2024/03/23 07:13:30;;;;;;;59.50;30.90;;;;;;;9.16;79.92;100081.42;104829;1257;62194;-65
2024/03/23 07:15:57;;;;;;;83.30;40.60;;;;;;;9.15;79.81;100084.75;104897;1260;139564;-64
2024/03/23 07:18:23;;;;;;;67.90;30.80;;;;;;;9.17;79.77;100089.15;109000;1256;66704;-65
2024/03/23 07:20:56;;;;;;;47.80;20.00;;;;;;;9.19;79.80;100087.80;108997;1256;72809;-65
2024/03/23 07:23:26;;;;;;;35.30;14.40;;;;;;;9.21;79.74;100091.16;105075;1262;138197;-65
2024/03/23 07:26:04;;;;;;;46.40;18.10;;;;;;;9.23;79.67;100091.20;104619;1262;62058;-65
2024/03/23 07:28:35;;;;;;;37.80;12.90;;;;;;;9.28;79.77;100091.48;108562;1256;138476;-65
2024/03/23 07:31:08;;;;;;;38.30;16.90;;;;;;;9.32;79.75;100089.11;109002;1256;67331;-65
2024/03/23 07:33:36;;;;;;;57.20;26.20;;;;;;;9.33;79.57;100089.48;108885;1256;139114;-66
2024/03/23 07:36:03;;;;;;;39.70;18.20;;;;;;;9.37;79.60;100091.46;109022;1256;59918;-66
2024/03/23 07:38:29;;;;;;;39.50;19.80;;;;;;;9.41;79.51;100090.86;105157;1257;62138;-62
2024/03/23 07:41:04;;;;;;;32.30;14.40;;;;;;;9.48;79.56;100088.19;104782;1260;139236;-62
2024/03/23 07:43:30;;;;;;;38.30;15.30;;;;;;;9.53;79.47;100087.57;104826;1260;65438;-62
2024/03/23 07:45:57;;;;;;;28.90;11.80;;;;;;;9.57;79.38;100091.84;104687;1261;139210;-62
2024/03/23 07:48:23;;;;;;;27.00;7.80;;;;;;;9.61;79.21;100091.74;104828;1260;62097;-63
2024/03/23 07:51:00;;;;;;;41.60;15.10;;;;;;;9.67;79.25;100086.08;108347;1260;59972;-63
2024/03/23 07:53:28;;;;;;;38.70;17.20;;;;;;;9.72;79.08;100085.30;108938;1256;137997;-63
2024/03/23 07:55:55;;;;;;;30.50;11.50;;;;;;;9.76;79.06;100082.56;109040;1256;66379;-63
2024/03/23 07:58:22;;;;;;;31.10;12.10;;;;;;;9.82;78.87;100083.20;105452;1256;138077;-63
2024/03/23 08:00:48;;;;;;;25.70;8.50;;;;;;;9.87;78.70;100075.73;104942;1262;62042;-62
2024/03/23 08:03:15;;;;;;;34.80;11.80;;;;;;;9.91;78.52;100070.90;104793;1256;140279;-62
2024/03/23 08:05:42;;;;;;;26.80;11.40;;;;;;;9.92;78.16;100071.95;104913;1257;74897;-63
2024/03/23 08:08:08;;;;;;;31.70;12.50;;;;;;;9.95;78.18;100075.34;104757;1262;62108;-63
2024/03/23 08:10:35;;;;;;;22.30;7.90;;;;;;;10.00;78.17;100071.05;104773;1256;138682;-63
2024/03/23 08:13:01;;;;;;;33.50;15.10;;;;;;;10.03;77.87;100072.14;104617;1262;62214;-62
2024/03/23 08:15:32;;;;;;;31.00;12.40;;;;;;;10.05;77.94;100069.71;104777;1256;138602;-63
2024/03/23 08:17:59;;;;;;;92.70;35.00;;;;;;;10.08;77.99;100062.58;104864;1256;76418;-63
2024/03/23 08:20:27;;;;;;;43.90;24.90;;;;;;;10.09;77.68;100063.48;106736;1260;66554;-62
2024/03/23 08:22:53;;;;;;;76.70;53.30;;;;;;;10.09;77.59;100060.66;104838;1257;138708;-62
2024/03/23 08:25:20;;;;;;;43.20;28.30;;;;;;;10.06;77.23;100055.70;104025;1256;62137;-62
2024/03/23 08:27:46;;;;;;;43.20;26.30;;;;;;;9.98;77.00;100062.24;104755;1260;138706;-63
2024/03/23 08:30:13;;;;;;;29.00;16.20;;;;;;;9.92;76.95;100058.81;104782;1256;75816;-63
2024/03/23 08:32:42;;;;;;;43.40;25.70;;;;;;;9.86;76.94;100052.06;104980;1256;66666;-64
2024/03/23 08:35:09;;;;;;;33.10;16.00;;;;;;;9.83;76.94;100050.78;104746;1260;138228;-67
2024/03/23 08:37:36;;;;;;;59.30;34.20;;;;;;;9.82;76.93;100042.19;105142;1256;62221;-66
2024/03/23 08:40:04;;;;;;;37.40;20.60;;;;;;;9.81;76.99;100042.34;104789;1256;138749;-66
2024/03/23 08:42:30;;;;;;;35.50;21.20;;;;;;;9.82;76.91;100040.79;106081;1260;75322;-66
2024/03/23 08:44:57;;;;;;;67.10;41.40;;;;;;;9.85;76.84;100042.24;104863;1256;65449;-66
2024/03/23 08:47:24;;;;;;;41.90;23.90;;;;;;;9.86;76.57;100040.14;104957;1256;138349;-66
2024/03/23 08:49:51;;;;;;;35.60;17.50;;;;;;;9.82;76.27;100035.70;104826;1261;62111;-67
2024/03/23 08:52:18;;;;;;;46.50;23.00;;;;;;;9.74;76.00;100031.88;104926;1260;138233;-67
2024/03/23 08:54:44;;;;;;;93.70;46.70;;;;;;;9.65;76.03;100034.89;104801;1260;76138;-67
2024/03/23 08:57:11;;;;;;;66.30;32.50;;;;;;;9.67;76.33;100029.49;104868;1260;67582;-67
2024/03/23 08:59:37;;;;;;;41.30;19.90;;;;;;;9.75;76.32;100023.32;105007;1256;71719;-67
2024/03/23 09:02:04;;;;;;;53.90;28.90;;;;;;;9.86;76.16;100024.02;104846;1262;62105;-67
2024/03/23 09:04:31;;;;;;;35.70;20.30;;;;;;;10.01;75.89;100022.16;104824;1256;138676;-67
2024/03/23 09:06:59;;;;;;;24.10;11.00;;;;;;;10.13;75.81;100014.63;104657;1257;75280;-68
2024/03/23 09:09:26;;;;;;;24.80;13.80;;;;;;;10.24;75.57;100014.77;104835;1262;138452;-66
2024/03/23 09:11:52;;;;;;;23.40;15.20;;;;;;;10.41;75.62;100013.48;105012;1257;72401;-67
2024/03/23 09:14:19;;;;;;;22.80;13.30;;;;;;;10.61;75.47;100013.05;105010;1256;62157;-66
2024/03/23 09:16:46;;;;;;;24.40;14.20;;;;;;;10.75;75.01;100020.40;104843;1260;138591;-66
2024/03/23 09:19:12;;;;;;;29.60;18.50;;;;;;;10.83;74.85;100012.44;105020;1256;74989;-66
2024/03/23 09:21:39;;;;;;;24.40;12.60;;;;;;;10.98;74.88;100002.61;104872;1257;138562;-66
2024/03/23 09:24:06;;;;;;;19.70;12.00;;;;;;;11.07;74.70;99997.61;105007;1257;72659;-66
2024/03/23 09:26:33;;;;;;;25.40;15.50;;;;;;;11.20;74.62;99993.89;106481;1259;60301;-66
2024/03/23 09:28:59;;;;;;;18.40;10.10;;;;;;;11.22;73.96;99990.40;104794;1263;138260;-66
2024/03/23 09:31:26;;;;;;;14.60;7.30;;;;;;;11.27;74.06;99987.11;104610;1256;75237;-66
2024/03/23 09:33:52;;;;;;;22.60;12.10;;;;;;;11.41;74.17;99984.61;104795;1259;138161;-65
2024/03/23 09:36:19;;;;;;;120.20;50.20;;;;;;;11.57;73.96;99979.83;104720;1256;73663;-66
2024/03/23 09:38:46;;;;;;;45.70;22.50;;;;;;;11.71;73.48;99972.75;104922;1260;62623;-65
2024/03/23 09:41:14;;;;;;;31.00;16.60;;;;;;;11.73;73.10;99966.95;104856;1260;138070;-66
2024/03/23 09:43:40;;;;;;;22.60;10.60;;;;;;;11.82;73.13;99966.51;104661;1258;76142;-65
2024/03/23 09:46:07;;;;;;;18.80;11.90;;;;;;;11.89;72.54;99955.83;104672;1259;138458;-68
2024/03/23 09:48:34;;;;;;;19.40;14.20;;;;;;;11.92;72.07;99949.53;104816;1262;74460;-66
2024/03/23 09:51:01;;;;;;;28.20;19.80;;;;;;;11.96;71.46;99947.47;104857;1262;62172;-66
2024/03/23 09:53:27;;;;;;;26.90;20.20;;;;;;;11.97;71.16;99951.52;104580;1256;138171;-66
2024/03/23 09:55:54;;;;;;;18.70;12.50;;;;;;;12.03;71.01;99957.34;104626;1258;76186;-66
2024/03/23 09:58:23;;;;;;;9.60;5.80;;;;;;;11.93;70.31;99951.33;104729;1256;138450;-67
2024/03/23 10:00:50;;;;;;;11.30;7.70;;;;;;;11.85;70.10;99950.71;108855;1256;72752;-68
2024/03/23 10:03:17;;;;;;;9.80;4.40;;;;;;;11.91;70.21;99953.75;106899;1256;138129;-69
2024/03/23 10:05:45;;;;;;;6.40;3.90;;;;;;;12.03;70.24;99955.25;104894;1262;62084;-67
2024/03/23 10:08:15;;;;;;;8.40;4.70;;;;;;;12.10;69.87;99959.69;104983;1260;76490;-68
2024/03/23 10:10:42;;;;;;;7.00;3.70;;;;;;;12.15;69.51;99960.25;104753;1262;138248;-67
2024/03/23 10:13:08;;;;;;;6.50;2.70;;;;;;;12.12;69.16;99963.39;104840;1260;73912;-68
2024/03/23 10:15:35;;;;;;;9.30;2.60;;;;;;;12.06;68.71;99963.71;104525;1263;138368;-67
2024/03/23 10:18:32;;;;;;;6.00;2.30;;;;;;;12.01;68.49;99964.73;105625;1256;62057;-68
2024/03/23 10:21:05;;;;;;;5.90;2.20;;;;;;;11.87;68.08;99963.55;104649;1262;75885;-67
2024/03/23 10:23:35;;;;;;;6.40;2.30;;;;;;;11.78;68.09;99960.31;104754;1256;137594;-67
2024/03/23 10:26:27;;;;;;;6.60;2.40;;;;;;;11.70;68.12;99957.45;104792;1262;72260;-67
2024/03/23 10:29:07;;;;;;;7.70;2.20;;;;;;;11.60;68.19;99960.18;108905;1256;137740;-67
2024/03/23 10:31:39;;;;;;;5.90;2.10;;;;;;;11.49;68.13;99957.45;106346;1260;61381;-66
2024/03/23 10:34:07;;;;;;;7.50;2.60;;;;;;;11.47;68.49;99951.63;104676;1262;137820;-66
2024/03/23 10:36:33;;;;;;;12.30;4.70;;;;;;;11.49;68.35;99944.27;104882;1263;67568;-66
2024/03/23 10:39:00;;;;;;;10.70;4.30;;;;;;;11.52;68.54;99939.55;104613;1260;73125;-67
2024/03/23 10:41:30;;;;;;;9.70;5.00;;;;;;;11.63;68.77;99932.08;104679;1262;137954;-67
2024/03/23 10:43:57;;;;;;;12.40;7.80;;;;;;;11.76;68.88;99927.96;104718;1257;62148;-66
2024/03/23 10:46:23;;;;;;;11.30;7.10;;;;;;;11.84;68.67;99923.27;104612;1262;138484;-67
2024/03/23 10:48:50;;;;;;;43.70;31.10;;;;;;;11.95;68.56;99920.90;104695;1257;62173;-67
2024/03/23 10:51:16;;;;;;;14.30;8.40;;;;;;;12.04;68.25;99915.69;104597;1263;138340;-67
2024/03/23 10:53:43;;;;;;;14.70;6.10;;;;;;;12.08;68.01;99916.94;104778;1259;62258;-67
2024/03/23 10:56:09;;;;;;;8.10;5.00;;;;;;;12.10;67.94;99913.61;104778;1262;62045;-67
2024/03/23 10:58:41;;;;;;;7.70;3.90;;;;;;;12.18;68.10;99910.13;104861;1261;137745;-67
2024/03/23 11:01:11;;;;;;;6.00;2.50;;;;;;;12.35;67.86;99907.75;109016;1256;66540;-68
2024/03/23 11:03:38;;;;;;;7.10;2.50;;;;;;;12.45;67.75;99901.27;105836;1262;137927;-67
2024/03/23 11:06:06;;;;;;;5.60;2.40;;;;;;;12.49;67.34;99894.95;104893;1260;62646;-67
2024/03/23 11:08:33;;;;;;;4.90;2.30;;;;;;;12.46;66.92;99894.77;104848;1262;62496;-68
2024/03/23 11:11:20;;;;;;;12.10;6.50;;;;;;;12.47;66.68;99889.31;104800;1261;138046;-67
2024/03/23 11:13:51;;;;;;;17.80;11.80;;;;;;;12.45;66.66;99890.90;108847;1256;65386;-68